createdAt,value
2022-10-26T00:04:15.940Z,9.54
2022-10-26T00:09:18.467Z,9.50
2022-10-26T00:14:22.396Z,9.54
2022-10-26T00:19:25.082Z,9.56
2022-10-26T00:24:27.661Z,9.58
2022-10-26T00:29:31.685Z,9.53
2022-10-26T00:34:34.281Z,9.64
2022-10-26T00:39:36.818Z,9.53
2022-10-26T00:45:02.065Z,9.46
2022-10-26T00:50:07.757Z,9.64
2022-10-26T00:55:10.426Z,9.62
2022-10-26T01:00:14.939Z,9.56
2022-10-26T01:05:18.418Z,9.56
2022-10-26T01:10:21.682Z,9.58
2022-10-26T01:15:31.096Z,9.59
2022-10-26T01:21:05.892Z,9.59
2022-10-26T01:26:33.802Z,9.54
2022-10-26T01:31:41.702Z,9.56
2022-10-26T01:36:47.308Z,9.46
2022-10-26T01:41:51.766Z,9.47
2022-10-26T01:46:56.533Z,9.47
2022-10-26T01:51:59.083Z,9.49
2022-10-26T01:57:03.703Z,9.55
2022-10-26T02:02:34.654Z,9.55
2022-10-26T02:07:41.746Z,9.49
2022-10-26T02:12:49.167Z,9.55
2022-10-26T02:17:58.188Z,9.57
2022-10-26T02:23:02.932Z,9.55
2022-10-26T02:28:07.816Z,9.53
2022-10-26T02:33:13.788Z,9.58
2022-10-26T02:38:19.595Z,9.57
2022-10-26T02:43:23.206Z,9.55
2022-10-26T02:48:27.165Z,9.61
2022-10-26T02:53:32.333Z,9.64
2022-10-26T02:58:38.108Z,9.60
2022-10-26T03:03:42.104Z,9.67
2022-10-26T03:08:44.698Z,9.71
2022-10-26T03:13:47.279Z,9.69
2022-10-26T03:18:51.175Z,9.73
2022-10-26T03:23:53.706Z,9.77
2022-10-26T03:28:56.251Z,9.76
2022-10-26T03:34:00.130Z,9.85
2022-10-26T03:39:02.860Z,9.80
2022-10-26T03:44:05.784Z,9.78
2022-10-26T03:49:09.662Z,9.78
2022-10-26T03:54:12.211Z,9.83
2022-10-26T03:59:14.765Z,9.84
2022-10-26T04:04:18.714Z,9.82
2022-10-26T04:09:21.439Z,9.86
2022-10-26T04:14:24.057Z,9.88
2022-10-26T04:19:27.948Z,9.93
2022-10-26T04:24:30.498Z,9.97
2022-10-26T04:29:33.063Z,9.95
2022-10-26T04:34:36.947Z,9.95
2022-10-26T04:39:39.503Z,9.99
2022-10-26T04:44:42.044Z,9.98
2022-10-26T04:49:45.943Z,10.06
2022-10-26T04:54:48.463Z,10.07
2022-10-26T04:59:51.007Z,10.09
2022-10-26T05:04:54.888Z,10.08
2022-10-26T05:09:57.443Z,10.13
2022-10-26T05:15:00.303Z,10.13
2022-10-26T05:20:06.153Z,10.17
2022-10-26T05:25:09.535Z,10.24
2022-10-26T05:30:12.628Z,10.22
2022-10-26T05:35:16.867Z,10.27
2022-10-26T05:40:19.579Z,10.26
2022-10-26T05:45:22.324Z,10.24
2022-10-26T05:50:26.361Z,10.26
2022-10-26T05:55:29.663Z,10.25
2022-10-26T06:00:32.948Z,10.27
2022-10-26T06:05:42.521Z,10.24
2022-10-26T06:10:45.558Z,10.27
2022-10-26T06:15:58.310Z,10.29
2022-10-26T06:21:11.560Z,10.33
2022-10-26T06:26:20.657Z,10.36
2022-10-26T06:31:23.257Z,10.39
2022-10-26T06:36:28.973Z,10.50
2022-10-26T06:41:33.513Z,10.52
2022-10-26T06:46:40.351Z,10.68
2022-10-26T06:51:48.131Z,10.86
2022-10-26T06:56:51.032Z,11.33
2022-10-26T07:01:53.625Z,11.04
2022-10-26T07:06:58.068Z,10.94
2022-10-26T07:12:00.720Z,11.40
2022-10-26T07:17:03.314Z,11.13
2022-10-26T07:22:07.242Z,11.18
2022-10-26T07:27:09.819Z,11.18
2022-10-26T07:32:12.383Z,11.26
2022-10-26T07:37:16.254Z,11.41
2022-10-26T07:42:18.790Z,11.62
2022-10-26T07:47:21.326Z,11.49
2022-10-26T07:52:25.268Z,11.68
2022-10-26T07:57:27.791Z,11.67
2022-10-26T08:02:30.484Z,11.73
2022-10-26T08:07:34.351Z,11.91
2022-10-26T08:12:37.011Z,11.83
2022-10-26T08:17:39.587Z,11.82
2022-10-26T08:22:43.472Z,12.21
2022-10-26T08:27:46.008Z,12.17
2022-10-26T08:32:48.938Z,12.41
2022-10-26T08:37:53.163Z,12.34
2022-10-26T08:42:59.300Z,12.63
2022-10-26T08:48:03.056Z,12.67
2022-10-26T08:53:09.838Z,12.43
2022-10-26T08:58:16.990Z,12.65
2022-10-26T09:03:20.076Z,12.89
2022-10-26T09:08:30.869Z,12.81
2022-10-26T09:13:41.589Z,12.73
2022-10-26T09:18:50.480Z,13.30
2022-10-26T09:24:00.374Z,13.75
2022-10-26T09:29:04.631Z,13.77
2022-10-26T09:34:08.633Z,13.96
2022-10-26T09:39:17.120Z,14.28
2022-10-26T09:44:26.022Z,14.46
2022-10-26T09:49:34.316Z,14.63
2022-10-26T09:54:38.273Z,14.63
2022-10-26T09:59:42.037Z,14.66
2022-10-26T10:04:48.033Z,14.76
2022-10-26T10:10:08.047Z,15.19
2022-10-26T10:15:18.912Z,15.37
2022-10-26T10:20:23.804Z,15.50
2022-10-26T10:25:36.008Z,15.66
2022-10-26T10:30:39.216Z,15.78
2022-10-26T10:35:49.607Z,16.07
2022-10-26T10:40:56.442Z,16.43
2022-10-26T10:45:59.938Z,16.66
2022-10-26T10:51:12.256Z,16.90
2022-10-26T10:56:33.120Z,16.82
2022-10-26T11:01:40.675Z,17.03
2022-10-26T11:06:44.757Z,17.23
2022-10-26T11:11:50.199Z,17.25
2022-10-26T11:16:57.429Z,17.48
2022-10-26T11:22:00.211Z,17.49
2022-10-26T11:27:10.119Z,17.57
2022-10-26T11:32:16.607Z,17.88
2022-10-26T11:37:20.772Z,17.84
2022-10-26T11:42:28.890Z,18.06
2022-10-26T11:47:36.530Z,18.15
2022-10-26T11:52:42.096Z,18.07
2022-10-26T11:57:46.985Z,18.16
2022-10-26T12:02:52.120Z,18.21
2022-10-26T12:07:56.761Z,18.38
2022-10-26T12:13:08.330Z,18.72
2022-10-26T12:18:16.157Z,18.64
2022-10-26T12:23:28.194Z,18.63
2022-10-26T12:28:42.994Z,18.64
2022-10-26T12:33:51.096Z,18.76
2022-10-26T12:38:59.329Z,18.77
2022-10-26T12:44:32.997Z,18.92
2022-10-26T12:50:01.056Z,18.92
2022-10-26T12:55:17.762Z,18.80
2022-10-26T13:00:22.998Z,18.80
2022-10-26T13:05:43.580Z,18.85
2022-10-26T13:11:01.271Z,18.88
2022-10-26T13:16:04.073Z,18.92
2022-10-26T13:21:11.463Z,18.88
2022-10-26T13:26:15.583Z,18.79
2022-10-26T13:31:55.439Z,18.83
2022-10-26T13:37:08.220Z,18.76
2022-10-26T13:42:16.032Z,18.65
2022-10-26T13:47:25.328Z,18.74
2022-10-26T13:52:31.400Z,18.69
2022-10-26T13:57:37.064Z,18.61
2022-10-26T14:02:42.860Z,18.58
2022-10-26T14:07:52.590Z,18.50
2022-10-26T14:12:58.999Z,18.43
2022-10-26T14:18:02.951Z,18.35
2022-10-26T14:23:06.895Z,18.25
2022-10-26T14:28:22.426Z,18.24
2022-10-26T14:33:28.822Z,18.25
2022-10-26T14:38:33.082Z,18.26
2022-10-26T14:43:35.716Z,18.16
2022-10-26T14:48:40.374Z,18.13
2022-10-26T14:53:50.167Z,18.15
2022-10-26T14:58:54.251Z,17.97
2022-10-26T15:03:58.362Z,17.93
2022-10-26T15:09:04.594Z,17.84
2022-10-26T15:14:12.874Z,17.79
2022-10-26T15:19:20.059Z,17.74
2022-10-26T15:24:34.503Z,17.61
2022-10-26T15:29:42.743Z,17.53
2022-10-26T15:34:49.614Z,17.45
2022-10-26T15:39:53.583Z,17.37
2022-10-26T15:44:56.342Z,17.21
2022-10-26T15:49:58.877Z,17.13
2022-10-26T15:55:02.776Z,16.95
2022-10-26T16:00:07.335Z,16.82
2022-10-26T16:05:12.154Z,16.69
2022-10-26T16:10:19.798Z,16.56
2022-10-26T16:15:24.364Z,16.49
2022-10-26T16:20:27.554Z,16.34
2022-10-26T16:25:31.547Z,16.22
2022-10-26T16:30:36.807Z,16.13
2022-10-26T16:35:39.506Z,16.02
2022-10-26T16:40:44.994Z,15.94
2022-10-26T16:45:47.555Z,15.88
2022-10-26T16:50:50.198Z,15.81
2022-10-26T16:55:54.106Z,15.73
2022-10-26T17:00:56.669Z,15.73
2022-10-26T17:06:00.431Z,15.64
2022-10-26T17:11:05.924Z,15.49
2022-10-26T17:16:11.249Z,15.40
2022-10-26T17:21:15.488Z,15.34
2022-10-26T17:26:19.383Z,15.25
2022-10-26T17:31:21.995Z,15.14
2022-10-26T17:36:25.641Z,15.12
2022-10-26T17:41:30.087Z,15.02
2022-10-26T17:46:33.898Z,14.89
2022-10-26T17:51:36.483Z,14.87
2022-10-26T17:56:40.384Z,14.77
2022-10-26T18:01:44.131Z,14.75
2022-10-26T18:06:46.995Z,14.72
2022-10-26T18:11:53.500Z,14.64
2022-10-26T18:16:58.374Z,14.56
2022-10-26T18:22:00.990Z,14.47
2022-10-26T18:27:04.983Z,14.48
2022-10-26T18:32:07.580Z,14.40
2022-10-26T18:37:10.271Z,14.40
2022-10-26T18:42:14.577Z,14.36
2022-10-26T18:47:17.155Z,14.36
2022-10-26T18:52:19.716Z,14.33
2022-10-26T18:57:26.872Z,14.19
2022-10-26T19:02:29.540Z,14.14
2022-10-26T19:07:32.118Z,14.03
2022-10-26T19:12:36.055Z,13.97
2022-10-26T19:17:38.686Z,13.97
2022-10-26T19:22:41.271Z,13.83
2022-10-26T19:27:47.364Z,13.82
2022-10-26T19:32:50.107Z,13.80
2022-10-26T19:37:52.843Z,13.76
2022-10-26T19:42:56.815Z,13.79
2022-10-26T19:47:59.406Z,13.68
2022-10-26T19:53:03.397Z,13.69
2022-10-26T19:58:07.306Z,13.72
2022-10-26T20:03:12.136Z,13.61
2022-10-26T20:08:14.747Z,13.57
2022-10-26T20:13:18.659Z,13.59
2022-10-26T20:18:21.413Z,13.51
2022-10-26T20:23:24.164Z,13.49
2022-10-26T20:28:28.063Z,13.44
2022-10-26T20:33:30.625Z,13.37
2022-10-26T20:38:33.721Z,13.39
2022-10-26T20:43:39.850Z,13.38
2022-10-26T20:48:42.995Z,13.34
2022-10-26T20:53:50.094Z,13.24
2022-10-26T20:58:55.709Z,13.24
2022-10-26T21:03:59.619Z,13.25
2022-10-26T21:09:02.190Z,13.16
2022-10-26T21:14:06.354Z,13.08
2022-10-26T21:19:08.915Z,13.08
2022-10-26T21:24:11.585Z,13.00
2022-10-26T21:29:15.475Z,13.03
2022-10-26T21:34:18.031Z,13.02
2022-10-26T21:39:20.610Z,13.02
2022-10-26T21:44:40.025Z,13.02
2022-10-26T21:49:43.521Z,12.92
2022-10-26T21:54:46.167Z,12.82
2022-10-26T21:59:50.480Z,12.77
2022-10-26T22:04:53.181Z,12.72
2022-10-26T22:10:10.337Z,12.76
2022-10-26T22:15:14.735Z,12.63
2022-10-26T22:20:17.406Z,12.67
2022-10-26T22:25:19.953Z,12.67
2022-10-26T22:30:23.902Z,12.60
2022-10-26T22:35:30.056Z,12.60
2022-10-26T22:40:32.859Z,12.56
2022-10-26T22:45:36.726Z,12.47
2022-10-26T22:50:39.385Z,12.48
2022-10-26T22:55:42.579Z,12.43
2022-10-26T23:00:46.555Z,12.40
2022-10-26T23:05:49.405Z,12.48
2022-10-26T23:10:52.001Z,12.43
2022-10-26T23:15:55.983Z,12.36
2022-10-26T23:20:58.672Z,12.16
2022-10-26T23:26:01.744Z,12.31
2022-10-26T23:31:06.118Z,12.22
2022-10-26T23:36:08.775Z,12.15
2022-10-26T23:41:12.963Z,12.18
2022-10-26T23:46:17.236Z,12.23
2022-10-26T23:51:19.857Z,12.18
2022-10-26T23:56:22.395Z,12.16
